sensor_id;sensor_type;location;lat;lon;timestamp;pressure;altitude;pressure_sealevel;temperature;humidity
31011;BME280;26395;53.412;19.598;2022-11-20T00:07:33;100045.25;;;-0.32;78.76
31011;BME280;26395;53.412;19.598;2022-11-20T00:22:36;100046.38;;;-0.34;78.11
31011;BME280;26395;53.412;19.598;2022-11-20T00:37:39;100041.79;;;-0.28;77.90
31011;BME280;26395;53.412;19.598;2022-11-20T00:52:43;100040.38;;;-0.31;78.18
31011;BME280;26395;53.412;19.598;2022-11-20T01:07:46;100043.22;;;-0.22;78.24
31011;BME280;26395;53.412;19.598;2022-11-20T01:22:49;100039.70;;;-0.20;78.76
31011;BME280;26395;53.412;19.598;2022-11-20T01:37:53;100036.68;;;-0.18;79.89
31011;BME280;26395;53.412;19.598;2022-11-20T01:53:08;100033.90;;;-0.14;80.67
31011;BME280;26395;53.412;19.598;2022-11-20T02:08:12;100035.10;;;-0.06;81.31
31011;BME280;26395;53.412;19.598;2022-11-20T02:23:38;100027.80;;;-0.01;82.03
31011;BME280;26395;53.412;19.598;2022-11-20T02:38:43;100024.08;;;0.01;82.63
31011;BME280;26395;53.412;19.598;2022-11-20T02:53:46;100022.55;;;0.04;83.43
31011;BME280;26395;53.412;19.598;2022-11-20T03:08:50;100009.31;;;-0.06;84.32
31011;BME280;26395;53.412;19.598;2022-11-20T03:23:54;100005.45;;;-0.05;84.43
31011;BME280;26395;53.412;19.598;2022-11-20T03:38:58;100000.60;;;-0.07;85.10
31011;BME280;26395;53.412;19.598;2022-11-20T03:54:05;99997.04;;;-0.08;85.63
31011;BME280;26395;53.412;19.598;2022-11-20T04:09:10;99996.11;;;-0.18;85.96
31011;BME280;26395;53.412;19.598;2022-11-20T04:24:13;99994.11;;;-0.27;86.58
31011;BME280;26395;53.412;19.598;2022-11-20T04:39:17;99982.05;;;-0.33;86.75
31011;BME280;26395;53.412;19.598;2022-11-20T04:54:20;99983.81;;;-0.34;86.90
31011;BME280;26395;53.412;19.598;2022-11-20T05:09:23;99980.57;;;-0.38;87.03
31011;BME280;26395;53.412;19.598;2022-11-20T05:24:27;99975.90;;;-0.41;87.06
31011;BME280;26395;53.412;19.598;2022-11-20T05:39:30;99970.77;;;-0.46;87.64
31011;BME280;26395;53.412;19.598;2022-11-20T05:54:33;99959.34;;;-0.47;88.21
31011;BME280;26395;53.412;19.598;2022-11-20T06:09:37;99946.98;;;-0.47;89.09
31011;BME280;26395;53.412;19.598;2022-11-20T06:24:40;99943.12;;;-0.46;89.38
31011;BME280;26395;53.412;19.598;2022-11-20T06:39:44;99936.94;;;-0.49;90.49
31011;BME280;26395;53.412;19.598;2022-11-20T06:54:47;99936.89;;;-0.41;90.59
31011;BME280;26395;53.412;19.598;2022-11-20T07:09:51;99941.63;;;-0.40;91.19
31011;BME280;26395;53.412;19.598;2022-11-20T07:24:55;99925.87;;;-0.30;91.40
31011;BME280;26395;53.412;19.598;2022-11-20T07:39:58;99919.30;;;-0.15;90.88
31011;BME280;26395;53.412;19.598;2022-11-20T07:55:02;99925.58;;;0.01;90.89
31011;BME280;26395;53.412;19.598;2022-11-20T08:10:08;99927.53;;;0.03;91.28
31011;BME280;26395;53.412;19.598;2022-11-20T08:25:12;99921.69;;;0.20;91.25
31011;BME280;26395;53.412;19.598;2022-11-20T08:40:16;99912.73;;;0.40;91.01
31011;BME280;26395;53.412;19.598;2022-11-20T08:55:22;99904.51;;;0.63;90.80
31011;BME280;26395;53.412;19.598;2022-11-20T09:10:27;99887.06;;;0.80;90.05
31011;BME280;26395;53.412;19.598;2022-11-20T09:25:30;99881.96;;;1.11;89.14
31011;BME280;26395;53.412;19.598;2022-11-20T09:40:35;99874.23;;;1.72;88.38
31011;BME280;26395;53.412;19.598;2022-11-20T09:55:42;99864.74;;;1.75;86.29
31011;BME280;26395;53.412;19.598;2022-11-20T10:10:50;99853.53;;;1.93;85.54
31011;BME280;26395;53.412;19.598;2022-11-20T10:26:02;99849.82;;;1.83;84.53
31011;BME280;26395;53.412;19.598;2022-11-20T10:41:06;99849.23;;;1.60;84.28
31011;BME280;26395;53.412;19.598;2022-11-20T11:11:38;99844.81;;;1.44;85.52
31011;BME280;26395;53.412;19.598;2022-11-20T11:26:57;99832.06;;;1.44;86.33
31011;BME280;26395;53.412;19.598;2022-11-20T11:42:02;99821.56;;;1.53;86.89
31011;BME280;26395;53.412;19.598;2022-11-20T11:57:23;99810.93;;;1.43;87.03
31011;BME280;26395;53.412;19.598;2022-11-20T12:12:35;99804.83;;;1.38;88.30
31011;BME280;26395;53.412;19.598;2022-11-20T12:43:21;99774.98;;;1.44;89.69
31011;BME280;26395;53.412;19.598;2022-11-20T13:15:08;99752.95;;;1.41;89.47
31011;BME280;26395;53.412;19.598;2022-11-20T13:29:46;99727.61;;;1.35;90.48
31011;BME280;26395;53.412;19.598;2022-11-20T13:44:54;99721.17;;;1.42;90.93
31011;BME280;26395;53.412;19.598;2022-11-20T14:00:19;99714.63;;;1.33;91.57
31011;BME280;26395;53.412;19.598;2022-11-20T14:15:33;99697.13;;;1.29;92.39
31011;BME280;26395;53.412;19.598;2022-11-20T14:30:46;99693.20;;;1.22;92.80
31011;BME280;26395;53.412;19.598;2022-11-20T14:45:58;99681.90;;;1.27;93.06
31011;BME280;26395;53.412;19.598;2022-11-20T15:01:07;99677.20;;;1.25;94.15
31011;BME280;26395;53.412;19.598;2022-11-20T15:16:20;99664.85;;;1.30;94.42
31011;BME280;26395;53.412;19.598;2022-11-20T15:31:25;99658.38;;;1.35;94.01
31011;BME280;26395;53.412;19.598;2022-11-20T15:46:31;99649.10;;;1.37;94.61
31011;BME280;26395;53.412;19.598;2022-11-20T16:01:41;99635.07;;;1.30;95.90
31011;BME280;26395;53.412;19.598;2022-11-20T16:16:45;99631.20;;;1.25;97.11
31011;BME280;26395;53.412;19.598;2022-11-20T16:31:48;99626.83;;;1.21;97.91
31011;BME280;26395;53.412;19.598;2022-11-20T16:46:53;99625.72;;;1.16;99.52
31011;BME280;26395;53.412;19.598;2022-11-20T17:01:58;99619.04;;;1.15;99.79
31011;BME280;26395;53.412;19.598;2022-11-20T17:17:01;99620.01;;;1.07;100.00
31011;BME280;26395;53.412;19.598;2022-11-20T17:32:05;99620.83;;;1.02;100.00
31011;BME280;26395;53.412;19.598;2022-11-20T17:47:09;99620.19;;;0.99;100.00
31011;BME280;26395;53.412;19.598;2022-11-20T18:02:13;99610.47;;;0.97;100.00
31011;BME280;26395;53.412;19.598;2022-11-20T18:17:17;99606.33;;;0.91;100.00
31011;BME280;26395;53.412;19.598;2022-11-20T18:32:21;99602.66;;;0.89;100.00
31011;BME280;26395;53.412;19.598;2022-11-20T18:47:30;99592.27;;;0.85;100.00
31011;BME280;26395;53.412;19.598;2022-11-20T19:02:35;99595.02;;;0.81;100.00
31011;BME280;26395;53.412;19.598;2022-11-20T19:17:45;99587.98;;;0.69;100.00
31011;BME280;26395;53.412;19.598;2022-11-20T19:32:49;99575.70;;;0.67;100.00
31011;BME280;26395;53.412;19.598;2022-11-20T19:47:54;99575.95;;;0.66;100.00
31011;BME280;26395;53.412;19.598;2022-11-20T20:03:12;99575.58;;;0.78;100.00
31011;BME280;26395;53.412;19.598;2022-11-20T20:18:16;99565.84;;;0.83;100.00
31011;BME280;26395;53.412;19.598;2022-11-20T20:33:20;99569.41;;;0.89;100.00
31011;BME280;26395;53.412;19.598;2022-11-20T20:48:24;99578.27;;;0.89;100.00
31011;BME280;26395;53.412;19.598;2022-11-20T21:03:28;99582.29;;;0.84;100.00
31011;BME280;26395;53.412;19.598;2022-11-20T21:18:35;99571.66;;;0.80;100.00
31011;BME280;26395;53.412;19.598;2022-11-20T21:33:41;99562.67;;;0.78;100.00
31011;BME280;26395;53.412;19.598;2022-11-20T21:48:46;99548.38;;;0.75;100.00
31011;BME280;26395;53.412;19.598;2022-11-20T22:03:51;99543.83;;;0.65;100.00
31011;BME280;26395;53.412;19.598;2022-11-20T22:18:57;99537.11;;;0.47;99.20
31011;BME280;26395;53.412;19.598;2022-11-20T22:34:01;99526.20;;;0.15;97.51
31011;BME280;26395;53.412;19.598;2022-11-20T22:49:06;99528.45;;;-0.19;96.00
31011;BME280;26395;53.412;19.598;2022-11-20T23:04:13;99517.83;;;-0.39;95.29
31011;BME280;26395;53.412;19.598;2022-11-20T23:19:17;99518.05;;;-0.49;94.99
31011;BME280;26395;53.412;19.598;2022-11-20T23:34:21;99523.70;;;-0.58;94.51
31011;BME280;26395;53.412;19.598;2022-11-20T23:49:25;99519.58;;;-0.49;94.20
